createdAt,value
2017-09-25T00:01:02.388Z,20.10
2017-09-25T00:03:31.481Z,22.93
2017-09-25T00:06:01.590Z,22.33
2017-09-25T00:08:30.673Z,22.73
2017-09-25T00:10:59.722Z,19.53
2017-09-25T00:13:28.792Z,23.73
2017-09-25T00:15:57.880Z,21.23
2017-09-25T00:18:26.973Z,23.07
2017-09-25T00:20:56.786Z,18.77
2017-09-25T00:23:25.857Z,18.87
2017-09-25T00:25:55.683Z,22.33
2017-09-25T00:28:24.748Z,24.50
2017-09-25T00:30:54.599Z,29.63
2017-09-25T00:33:23.954Z,28.73
2017-09-25T00:35:53.025Z,32.47
2017-09-25T00:38:22.092Z,32.27
2017-09-25T00:40:51.166Z,33.50
2017-09-25T00:43:20.498Z,31.60
2017-09-25T00:45:50.350Z,31.60
2017-09-25T00:48:19.433Z,32.33
2017-09-25T00:50:49.234Z,31.03
2017-09-25T00:56:13.500Z,32.63
2017-09-25T00:58:42.559Z,28.70
2017-09-25T01:01:14.413Z,29.80
2017-09-25T01:03:56.957Z,31.83
2017-09-25T01:06:27.471Z,28.90
2017-09-25T01:08:57.571Z,28.50
2017-09-25T01:11:26.652Z,28.30
2017-09-25T01:13:55.735Z,30.80
2017-09-25T01:16:24.806Z,29.83
2017-09-25T01:18:53.875Z,28.33
2017-09-25T01:21:23.696Z,29.00
2017-09-25T01:23:53.531Z,27.30
2017-09-25T01:26:22.608Z,29.57
2017-09-25T01:28:52.424Z,28.73
2017-09-25T01:31:21.504Z,30.03
2017-09-25T01:33:50.560Z,28.47
2017-09-25T01:36:19.630Z,27.27
2017-09-25T01:38:48.716Z,29.03
2017-09-25T01:41:17.812Z,26.90
2017-09-25T01:43:46.862Z,29.27
2017-09-25T01:46:15.927Z,28.40
2017-09-25T01:48:44.983Z,28.53
2017-09-25T01:51:14.059Z,28.77
2017-09-25T01:53:43.880Z,25.57
2017-09-25T01:56:13.717Z,28.63
2017-09-25T01:58:42.772Z,29.00
2017-09-25T02:01:12.609Z,35.57
2017-09-25T02:03:41.686Z,29.97
2017-09-25T02:06:10.719Z,31.27
2017-09-25T02:08:39.813Z,30.53
2017-09-25T02:11:08.908Z,27.67
2017-09-25T02:13:37.986Z,29.00
2017-09-25T02:16:07.056Z,27.70
2017-09-25T02:18:36.158Z,26.67
2017-09-25T02:21:05.232Z,26.30
2017-09-25T02:23:34.305Z,29.60
2017-09-25T02:26:03.367Z,27.47
2017-09-25T02:28:32.597Z,27.77
2017-09-25T02:31:01.656Z,27.97
2017-09-25T02:33:31.485Z,27.40
2017-09-25T02:36:00.580Z,31.20
2017-09-25T02:38:29.652Z,28.70
2017-09-25T02:40:59.494Z,26.90
2017-09-25T02:43:28.597Z,26.20
2017-09-25T02:45:57.703Z,25.70
2017-09-25T02:48:26.768Z,29.57
2017-09-25T02:50:55.858Z,29.87
2017-09-25T02:53:24.920Z,26.53
2017-09-25T02:55:54.031Z,28.27
2017-09-25T02:58:23.086Z,26.90
2017-09-25T03:00:52.161Z,27.67
2017-09-25T03:03:21.245Z,27.00
2017-09-25T03:05:50.324Z,24.40
2017-09-25T03:08:20.157Z,26.03
2017-09-25T03:10:49.216Z,22.60
2017-09-25T03:13:19.051Z,23.80
2017-09-25T03:15:48.114Z,29.20
2017-09-25T03:18:17.206Z,22.93
2017-09-25T03:20:46.582Z,24.97
2017-09-25T03:23:15.638Z,25.63
2017-09-25T03:25:44.936Z,24.40
2017-09-25T03:28:13.996Z,23.23
2017-09-25T03:30:43.108Z,22.13
2017-09-25T03:33:12.160Z,26.00
2017-09-25T03:35:41.221Z,25.47
2017-09-25T03:38:10.320Z,25.77
2017-09-25T03:40:39.371Z,23.90
2017-09-25T03:43:08.451Z,24.43
2017-09-25T03:45:37.520Z,22.60
2017-09-25T03:48:06.616Z,25.90
2017-09-25T03:50:35.896Z,25.60
2017-09-25T03:53:05.744Z,24.80
2017-09-25T03:55:35.124Z,23.53
2017-09-25T03:58:04.180Z,24.27
2017-09-25T04:00:33.341Z,26.07
2017-09-25T04:03:02.435Z,25.60
2017-09-25T04:05:31.508Z,23.90
2017-09-25T04:08:00.584Z,29.57
2017-09-25T04:10:29.665Z,27.00
2017-09-25T04:12:59.503Z,23.40
2017-09-25T04:15:28.570Z,26.90
2017-09-25T04:17:58.424Z,26.47
2017-09-25T04:20:27.470Z,24.63
2017-09-25T04:22:56.536Z,23.57
2017-09-25T04:25:25.614Z,22.23
2017-09-25T04:27:54.686Z,23.87
2017-09-25T04:30:23.760Z,23.50
2017-09-25T04:32:53.579Z,22.80
2017-09-25T04:35:23.445Z,22.23
2017-09-25T04:37:52.525Z,21.67
2017-09-25T04:40:21.645Z,20.00
2017-09-25T04:42:51.478Z,21.80
2017-09-25T04:45:20.564Z,22.63
2017-09-25T04:47:49.652Z,19.50
2017-09-25T04:50:19.572Z,22.53
2017-09-25T04:52:48.659Z,20.30
2017-09-25T04:55:17.728Z,26.47
2017-09-25T04:57:46.790Z,24.60
2017-09-25T05:00:16.641Z,24.73
2017-09-25T05:02:45.717Z,22.17
2017-09-25T05:05:14.972Z,21.97
2017-09-25T05:07:44.046Z,21.57
2017-09-25T05:10:13.132Z,22.90
2017-09-25T05:12:42.191Z,25.43
2017-09-25T05:15:12.049Z,26.10
2017-09-25T05:17:41.961Z,24.23
2017-09-25T05:20:11.114Z,25.07
2017-09-25T05:22:41.182Z,27.47
2017-09-25T05:25:10.254Z,29.00
2017-09-25T05:27:39.292Z,26.17
2017-09-25T05:30:08.376Z,27.83
2017-09-25T05:32:37.467Z,28.23
2017-09-25T05:35:06.559Z,25.67
2017-09-25T05:37:35.898Z,25.87
2017-09-25T05:40:04.987Z,26.10
2017-09-25T05:42:34.045Z,24.77
2017-09-25T05:45:03.111Z,23.87
2017-09-25T05:47:32.547Z,24.43
2017-09-25T05:50:01.629Z,25.30
2017-09-25T05:52:30.682Z,22.60
2017-09-25T05:55:00.516Z,23.63
2017-09-25T05:57:29.584Z,21.83
2017-09-25T05:59:58.676Z,22.03
2017-09-25T06:02:27.805Z,20.63
2017-09-25T06:04:57.645Z,23.37
2017-09-25T06:07:26.801Z,20.97
2017-09-25T06:09:56.645Z,19.47
2017-09-25T06:12:26.102Z,21.57
2017-09-25T06:14:55.303Z,21.23
2017-09-25T06:17:25.149Z,21.80
2017-09-25T06:19:54.231Z,22.60
2017-09-25T06:22:23.310Z,22.73
2017-09-25T06:24:52.375Z,21.60
2017-09-25T06:27:21.466Z,21.23
2017-09-25T06:29:50.513Z,22.10
2017-09-25T06:32:19.607Z,24.73
2017-09-25T06:34:49.448Z,23.40
2017-09-25T06:37:18.542Z,23.60
2017-09-25T06:39:47.604Z,20.37
2017-09-25T06:42:17.443Z,20.07
2017-09-25T06:44:46.504Z,18.33
2017-09-25T06:47:16.345Z,19.37
2017-09-25T06:49:45.682Z,18.80
2017-09-25T06:52:14.738Z,19.23
2017-09-25T06:54:43.853Z,19.77
2017-09-25T06:57:12.911Z,19.07
2017-09-25T06:59:41.983Z,17.40
2017-09-25T07:02:11.059Z,17.90
2017-09-25T07:04:40.133Z,17.30
2017-09-25T07:07:09.196Z,18.60
2017-09-25T07:09:39.049Z,16.80
2017-09-25T07:12:08.125Z,16.93
2017-09-25T07:14:37.181Z,16.70
2017-09-25T07:17:06.250Z,16.40
2017-09-25T07:19:35.336Z,17.30
2017-09-25T07:22:04.480Z,16.63
2017-09-25T07:24:35.003Z,17.87
2017-09-25T07:27:06.978Z,17.23
2017-09-25T07:29:36.041Z,16.23
2017-09-25T07:32:05.151Z,15.03
2017-09-25T07:34:40.042Z,16.50
2017-09-25T07:37:09.177Z,15.17
2017-09-25T07:39:38.253Z,14.70
2017-09-25T07:42:07.336Z,15.53
2017-09-25T07:44:36.408Z,13.30
2017-09-25T07:47:05.471Z,14.70
2017-09-25T07:49:37.272Z,13.80
2017-09-25T07:52:07.380Z,14.00
2017-09-25T07:54:36.455Z,12.90
2017-09-25T07:57:06.279Z,11.27
2017-09-25T07:59:35.361Z,12.13
2017-09-25T08:02:05.192Z,12.00
2017-09-25T08:04:34.366Z,10.80
2017-09-25T08:07:05.745Z,10.60
2017-09-25T08:09:35.881Z,10.63
2017-09-25T08:12:04.943Z,10.73
2017-09-25T08:14:34.021Z,12.17
2017-09-25T08:17:03.858Z,13.10
2017-09-25T08:19:32.968Z,13.40
2017-09-25T08:22:02.012Z,13.90
2017-09-25T08:24:31.109Z,11.90
2017-09-25T08:27:00.148Z,14.17
2017-09-25T08:29:29.231Z,14.40
2017-09-25T08:31:58.310Z,13.60
2017-09-25T08:34:28.223Z,13.60
2017-09-25T08:36:57.308Z,12.80
2017-09-25T08:39:26.381Z,13.57
2017-09-25T08:41:55.468Z,15.63
2017-09-25T08:44:24.532Z,9.63
2017-09-25T08:46:53.605Z,10.40
2017-09-25T08:49:23.436Z,8.80
2017-09-25T08:51:52.508Z,9.07
2017-09-25T08:54:22.693Z,9.00
2017-09-25T08:56:51.740Z,10.33
2017-09-25T08:59:20.825Z,11.17
2017-09-25T09:01:49.922Z,11.50
2017-09-25T09:04:19.763Z,12.33
2017-09-25T09:06:48.849Z,11.23
2017-09-25T09:09:17.910Z,11.03
2017-09-25T09:11:46.988Z,11.80
2017-09-25T09:14:16.059Z,10.60
2017-09-25T09:16:45.121Z,11.80
2017-09-25T09:19:14.197Z,14.27
2017-09-25T09:21:43.395Z,14.27
2017-09-25T09:24:12.495Z,12.83
2017-09-25T09:26:41.566Z,12.63
2017-09-25T09:29:10.905Z,12.27
2017-09-25T09:31:41.074Z,12.77
2017-09-25T09:34:10.165Z,12.30
2017-09-25T09:36:39.215Z,11.60
2017-09-25T09:39:08.338Z,12.50
2017-09-25T09:41:37.381Z,11.37
2017-09-25T09:44:06.457Z,10.87
2017-09-25T09:46:35.514Z,11.60
2017-09-25T09:49:04.592Z,11.83
2017-09-25T09:51:34.416Z,11.63
2017-09-25T09:54:03.477Z,11.70
2017-09-25T09:56:32.591Z,13.03
2017-09-25T09:59:02.448Z,10.50
2017-09-25T10:01:31.497Z,11.03
2017-09-25T10:04:01.340Z,10.63
2017-09-25T10:06:30.534Z,10.47
2017-09-25T10:09:00.449Z,10.80
2017-09-25T10:11:30.264Z,10.00
2017-09-25T10:13:59.340Z,10.80
2017-09-25T10:16:28.429Z,9.77
2017-09-25T10:18:58.264Z,10.53
2017-09-25T10:21:28.077Z,9.83
2017-09-25T10:23:57.154Z,10.83
2017-09-25T10:26:27.015Z,9.97
2017-09-25T10:28:56.325Z,10.27
2017-09-25T10:31:25.391Z,9.03
2017-09-25T10:33:54.480Z,9.57
2017-09-25T10:36:23.585Z,10.43
2017-09-25T10:38:52.663Z,10.40
2017-09-25T10:41:21.856Z,11.03
2017-09-25T10:43:50.945Z,10.37
2017-09-25T10:46:20.762Z,11.50
2017-09-25T10:48:50.596Z,12.70
2017-09-25T10:51:19.665Z,14.03
2017-09-25T10:53:49.501Z,15.67
2017-09-25T10:56:18.579Z,14.67
2017-09-25T10:58:47.937Z,14.63
2017-09-25T11:01:17.003Z,13.97
2017-09-25T11:03:46.068Z,15.37
2017-09-25T11:06:15.901Z,15.77
2017-09-25T11:08:44.980Z,14.87
2017-09-25T11:11:14.056Z,15.60
2017-09-25T11:13:43.109Z,14.73
2017-09-25T11:16:12.194Z,15.40
2017-09-25T11:18:41.286Z,14.60
2017-09-25T11:21:10.323Z,14.93
2017-09-25T11:23:39.395Z,13.47
2017-09-25T11:26:08.471Z,14.27
2017-09-25T11:28:37.551Z,14.87
2017-09-25T11:31:06.640Z,15.70
2017-09-25T11:33:36.452Z,14.90
2017-09-25T11:36:05.576Z,14.13
2017-09-25T11:38:34.627Z,15.33
2017-09-25T11:41:04.586Z,15.90
2017-09-25T11:43:33.647Z,14.43
2017-09-25T11:46:03.496Z,14.87
2017-09-25T11:48:32.556Z,15.80
2017-09-25T11:51:02.719Z,17.30
2017-09-25T11:53:33.345Z,16.80
2017-09-25T11:56:02.398Z,17.07
2017-09-25T11:58:32.259Z,18.93
2017-09-25T12:01:02.379Z,17.67
2017-09-25T12:03:31.457Z,16.17
2017-09-25T12:06:00.524Z,18.13
2017-09-25T12:08:30.365Z,16.83
2017-09-25T12:10:59.447Z,16.83
2017-09-25T12:13:28.489Z,18.30
2017-09-25T12:15:57.560Z,18.90
2017-09-25T12:18:26.619Z,17.83
2017-09-25T12:20:56.485Z,19.20
2017-09-25T12:23:25.579Z,17.67
2017-09-25T12:25:54.644Z,19.13
2017-09-25T12:28:23.727Z,17.50
2017-09-25T12:30:52.783Z,18.33
2017-09-25T12:33:22.579Z,17.60
2017-09-25T12:35:52.595Z,18.40
2017-09-25T12:38:21.691Z,18.53
2017-09-25T12:40:50.827Z,16.73
2017-09-25T12:43:20.657Z,15.80
2017-09-25T12:45:50.626Z,15.33
2017-09-25T12:48:19.678Z,14.10
2017-09-25T12:50:48.760Z,15.77
2017-09-25T12:53:18.596Z,15.77
2017-09-25T12:55:47.936Z,17.07
2017-09-25T12:58:16.991Z,17.03
2017-09-25T13:00:46.827Z,17.13
2017-09-25T13:03:15.924Z,16.37
2017-09-25T13:05:45.012Z,18.57
2017-09-25T13:08:14.075Z,17.17
2017-09-25T13:10:43.184Z,17.23
2017-09-25T13:13:12.239Z,16.93
2017-09-25T13:15:42.118Z,17.00
2017-09-25T13:18:11.227Z,16.40
2017-09-25T13:20:40.332Z,16.23
2017-09-25T13:23:09.399Z,15.17
2017-09-25T13:25:38.456Z,16.77
2017-09-25T13:28:07.543Z,15.40
2017-09-25T13:30:37.723Z,16.73
2017-09-25T13:33:06.789Z,18.03
2017-09-25T13:35:39.059Z,16.53
2017-09-25T13:38:08.116Z,18.40
2017-09-25T13:40:37.963Z,16.87
2017-09-25T13:43:07.028Z,16.60
2017-09-25T13:45:36.099Z,17.33
2017-09-25T13:48:05.167Z,18.80
2017-09-25T13:50:34.237Z,18.60
2017-09-25T13:53:03.448Z,18.20
2017-09-25T13:55:32.494Z,18.33
2017-09-25T13:58:01.569Z,17.30
2017-09-25T14:03:04.935Z,18.03
2017-09-25T14:05:33.994Z,19.20
2017-09-25T14:08:03.057Z,18.53
2017-09-25T14:10:32.130Z,20.00
2017-09-25T14:13:01.194Z,19.00
2017-09-25T14:15:30.333Z,17.90
2017-09-25T14:17:59.400Z,19.93
2017-09-25T14:20:29.225Z,19.07
2017-09-25T14:22:58.331Z,20.60
2017-09-25T14:25:28.232Z,20.03
2017-09-25T14:27:57.304Z,21.00
2017-09-25T14:30:27.151Z,19.73
2017-09-25T14:32:56.258Z,22.10
2017-09-25T14:35:25.298Z,22.47
2017-09-25T14:37:54.516Z,22.93
2017-09-25T14:40:24.488Z,24.27
2017-09-25T14:42:53.561Z,24.07
2017-09-25T14:45:22.612Z,23.73
2017-09-25T14:47:51.745Z,23.73
2017-09-25T14:50:20.788Z,23.30
2017-09-25T14:52:49.945Z,22.50
2017-09-25T14:55:19.023Z,22.57
2017-09-25T14:57:48.102Z,22.30
2017-09-25T15:00:17.921Z,23.90
2017-09-25T15:02:47.003Z,22.30
2017-09-25T15:05:16.862Z,23.20
2017-09-25T15:07:45.934Z,23.27
2017-09-25T15:10:15.040Z,24.63
2017-09-25T15:12:44.107Z,24.80
2017-09-25T15:15:14.156Z,23.40
2017-09-25T15:17:43.212Z,23.30
2017-09-25T15:20:13.062Z,24.37
2017-09-25T15:22:42.238Z,23.37
2017-09-25T15:25:12.066Z,22.97
2017-09-25T15:27:41.150Z,23.30
2017-09-25T15:30:10.198Z,22.67
2017-09-25T15:32:39.276Z,23.87
2017-09-25T15:35:08.356Z,23.67
2017-09-25T15:37:37.424Z,24.53
2017-09-25T15:40:07.347Z,23.27
2017-09-25T15:42:37.208Z,24.43
2017-09-25T15:45:06.308Z,24.20
2017-09-25T15:47:36.214Z,22.73
2017-09-25T15:50:05.267Z,22.07
2017-09-25T15:52:34.352Z,22.83
2017-09-25T15:55:03.454Z,22.10
2017-09-25T15:57:33.273Z,22.73
2017-09-25T16:00:02.349Z,23.60
2017-09-25T16:02:32.190Z,21.40
2017-09-25T16:05:01.266Z,21.93
2017-09-25T16:07:31.123Z,22.13
2017-09-25T16:10:00.178Z,22.87
2017-09-25T16:12:30.027Z,22.00
2017-09-25T16:14:59.088Z,23.20
2017-09-25T16:17:28.148Z,23.50
2017-09-25T16:19:57.228Z,22.20
2017-09-25T16:22:26.323Z,22.40
2017-09-25T16:24:55.385Z,21.97
2017-09-25T16:27:24.476Z,23.20
2017-09-25T16:29:53.645Z,22.33
2017-09-25T16:32:23.472Z,22.53
2017-09-25T16:34:52.544Z,22.20
2017-09-25T16:37:22.387Z,21.90
2017-09-25T16:39:51.471Z,25.07
2017-09-25T16:42:21.654Z,25.30
2017-09-25T16:44:50.754Z,23.73
2017-09-25T16:47:19.856Z,22.37
2017-09-25T16:49:48.918Z,23.77
2017-09-25T16:52:17.990Z,24.80
2017-09-25T16:54:47.061Z,24.20
2017-09-25T16:57:16.164Z,24.80
2017-09-25T16:59:46.031Z,25.30
2017-09-25T17:02:15.095Z,24.67
2017-09-25T17:04:44.168Z,25.90
2017-09-25T17:07:14.019Z,24.97
2017-09-25T17:09:44.059Z,24.60
2017-09-25T17:12:13.122Z,26.07
2017-09-25T17:14:42.267Z,26.43
2017-09-25T17:17:11.461Z,25.23
2017-09-25T17:19:42.309Z,24.77
2017-09-25T17:22:12.333Z,25.67
2017-09-25T17:24:42.431Z,25.63
2017-09-25T17:27:11.837Z,27.67
2017-09-25T17:29:42.997Z,25.00
2017-09-25T17:32:12.483Z,24.43
2017-09-25T17:34:41.942Z,27.20
2017-09-25T17:37:11.367Z,24.30
2017-09-25T17:39:40.916Z,25.40
2017-09-25T17:42:11.807Z,27.07
2017-09-25T17:44:40.994Z,26.70
2017-09-25T17:47:10.825Z,27.10
2017-09-25T17:49:40.153Z,24.57
2017-09-25T17:52:09.367Z,27.10
2017-09-25T17:54:39.220Z,25.37
2017-09-25T17:57:08.334Z,29.17
2017-09-25T17:59:37.439Z,27.27
2017-09-25T18:02:06.752Z,25.73
2017-09-25T18:04:35.847Z,26.60
2017-09-25T18:07:04.928Z,28.63
2017-09-25T18:09:33.971Z,29.10
2017-09-25T18:12:03.817Z,28.13
2017-09-25T18:14:32.901Z,29.47
2017-09-25T18:17:02.108Z,27.57
2017-09-25T18:19:31.466Z,28.50
2017-09-25T18:22:00.529Z,28.67
2017-09-25T18:24:29.695Z,27.63
2017-09-25T18:26:58.835Z,28.77
2017-09-25T18:29:27.898Z,38.60
2017-09-25T18:31:56.976Z,47.07
2017-09-25T18:34:26.455Z,50.80
2017-09-25T18:36:56.356Z,47.80
2017-09-25T18:39:25.442Z,39.80
2017-09-25T18:41:54.518Z,40.97
2017-09-25T18:44:23.581Z,37.77
2017-09-25T18:46:53.429Z,37.50
2017-09-25T18:49:22.496Z,36.70
2017-09-25T18:51:51.556Z,37.97
2017-09-25T18:54:20.665Z,32.47
2017-09-25T18:56:51.143Z,33.47
2017-09-25T18:59:20.220Z,32.80
2017-09-25T19:01:49.302Z,31.20
2017-09-25T19:04:18.389Z,30.80
2017-09-25T19:06:47.477Z,30.20
2017-09-25T19:09:17.317Z,29.67
2017-09-25T19:11:46.395Z,32.00
2017-09-25T19:14:15.463Z,27.60
2017-09-25T19:16:44.614Z,29.13
2017-09-25T19:19:13.735Z,29.73
2017-09-25T19:21:42.802Z,28.00
2017-09-25T19:24:11.890Z,27.93
2017-09-25T19:26:40.948Z,31.63
2017-09-25T19:29:10.815Z,32.57
2017-09-25T19:31:39.966Z,29.93
2017-09-25T19:34:09.811Z,32.87
2017-09-25T19:36:38.899Z,35.03
2017-09-25T19:39:07.979Z,33.67
2017-09-25T19:41:37.824Z,35.77
2017-09-25T19:44:06.918Z,33.60
2017-09-25T19:46:36.029Z,36.50
2017-09-25T19:49:06.420Z,34.47
2017-09-25T19:51:35.526Z,32.03
2017-09-25T19:54:05.018Z,32.10
2017-09-25T19:59:38.798Z,32.20
2017-09-25T20:02:07.864Z,34.17
2017-09-25T20:04:36.922Z,33.57
2017-09-25T20:07:06.820Z,31.37
2017-09-25T20:09:35.900Z,32.40
2017-09-25T20:12:04.977Z,31.17
2017-09-25T20:14:35.417Z,31.77
2017-09-25T20:17:05.826Z,30.70
2017-09-25T20:19:34.901Z,28.80
2017-09-25T20:22:04.057Z,27.53
2017-09-25T20:24:33.100Z,27.07
2017-09-25T20:27:02.191Z,29.97
2017-09-25T20:29:31.273Z,29.50
2017-09-25T20:32:01.090Z,29.27
2017-09-25T20:34:30.144Z,32.27
